Time;durP1;ratioP1;P1;durP2;ratioP2;P2;SDS_P1;SDS_P2;PMS_P1;PMS_P2;Temp;Humidity;BMP_temperature;BMP_pressure;BME280_temperature;BME280_humidity;BME280_pressure;Samples;Min_cycle;Max_cycle;Signal;HPM_P1;HPM_P2
2022/05/28 00:00:34;;;;;;;8.60;3.40;;;14.20;99.90;;;;;;4994539;28;20419;-73
2022/05/28 00:02:59;;;;;;;7.10;3.93;;;14.10;99.90;;;;;;4994639;28;20207;-76
2022/05/28 00:05:25;;;;;;;4.63;3.50;;;14.10;99.90;;;;;;4994620;28;20481;-75
2022/05/28 00:07:50;;;;;;;13.53;3.73;;;14.00;99.90;;;;;;4994537;28;20176;-76
2022/05/28 00:10:17;;;;;;;5.53;3.70;;;13.80;99.90;;;;;;4994925;28;20186;-76
2022/05/28 00:12:43;;;;;;;6.87;3.73;;;13.80;99.90;;;;;;4994049;28;20207;-76
2022/05/28 00:15:10;;;;;;;9.70;4.20;;;13.80;99.90;;;;;;4994523;28;20477;-76
2022/05/28 00:17:36;;;;;;;6.90;4.13;;;13.80;99.90;;;;;;4994428;28;20172;-76
2022/05/28 00:20:03;;;;;;;6.83;3.60;;;13.80;99.90;;;;;;4994268;28;20430;-76
2022/05/28 00:22:28;;;;;;;5.00;3.40;;;13.70;99.90;;;;;;4993173;28;20466;-76
2022/05/28 00:24:56;;;;;;;5.43;3.70;;;13.70;99.90;;;;;;4993426;28;20966;-76
2022/05/28 00:27:22;;;;;;;6.10;3.17;;;13.80;99.90;;;;;;4994311;28;20179;-76
2022/05/28 00:29:47;;;;;;;7.33;3.97;;;13.60;99.90;;;;;;4994121;28;20442;-76
2022/05/28 00:32:13;;;;;;;11.43;4.40;;;13.60;99.90;;;;;;4993984;28;20461;-76
2022/05/28 00:34:40;;;;;;;11.50;3.90;;;13.50;99.90;;;;;;4994062;28;20190;-76
2022/05/28 00:37:06;;;;;;;8.17;4.63;;;13.40;99.90;;;;;;4994025;28;20179;-76
2022/05/28 00:39:32;;;;;;;10.43;5.07;;;13.30;99.90;;;;;;4993939;28;20437;-76
2022/05/28 00:41:57;;;;;;;8.13;5.63;;;13.20;99.90;;;;;;4993818;28;20451;-76
2022/05/28 00:44:23;;;;;;;9.67;3.70;;;13.10;99.90;;;;;;4992937;28;20183;-75
2022/05/28 00:46:51;;;;;;;7.00;4.13;;;13.10;99.90;;;;;;4993375;28;20254;-76
2022/05/28 00:49:23;;;;;;;13.27;4.23;;;13.00;99.90;;;;;;4994145;28;20214;-76
2022/05/28 00:51:52;;;;;;;6.70;3.93;;;13.00;99.90;;;;;;4991995;28;20882;-77
2022/05/28 00:54:18;;;;;;;8.00;4.07;;;12.90;99.90;;;;;;4974675;28;20427;-77
2022/05/28 00:56:43;;;;;;;13.17;4.93;;;12.90;99.90;;;;;;4982851;28;20553;-77
2022/05/28 00:59:09;;;;;;;8.77;5.67;;;12.90;99.90;;;;;;4993768;28;20727;-76
2022/05/28 02:32:19;;;;;;;8.33;2.53;;;11.60;99.90;;;;;;5391686;22;21035;-74
2022/05/28 02:34:45;;;;;;;9.83;2.60;;;11.50;99.90;;;;;;5010644;28;20476;-74
2022/05/28 02:37:15;;;;;;;8.10;2.40;;;11.40;99.90;;;;;;5006978;28;20446;-75
2022/05/28 02:39:41;;;;;;;17.40;2.50;;;11.40;99.90;;;;;;5006771;28;20193;-76
2022/05/28 02:42:07;;;;;;;9.87;2.33;;;11.40;99.90;;;;;;5011344;28;20464;-76
2022/05/28 02:44:33;;;;;;;8.10;2.40;;;11.30;99.90;;;;;;5011807;28;20166;-76
2022/05/28 02:46:58;;;;;;;7.10;2.70;;;11.20;99.90;;;;;;5011388;28;20856;-76
2022/05/28 02:49:25;;;;;;;3.57;1.70;;;11.10;99.90;;;;;;5011820;28;20189;-76
2022/05/28 02:51:52;;;;;;;9.70;2.03;;;11.10;99.90;;;;;;5011245;28;20201;-75
2022/05/28 02:54:18;;;;;;;13.37;2.70;;;11.10;99.90;;;;;;5012398;28;20424;-75
2022/05/28 02:56:44;;;;;;;7.10;1.93;;;11.00;99.90;;;;;;5007797;28;20899;-75
2022/05/28 02:59:09;;;;;;;4.90;2.37;;;10.90;99.90;;;;;;4990963;28;20450;-75
2022/05/28 03:01:35;;;;;;;7.57;2.70;;;10.90;99.90;;;;;;5003820;28;20203;-74
2022/05/28 03:04:03;;;;;;;7.33;2.50;;;10.90;99.90;;;;;;5011693;28;20589;-75
2022/05/28 03:06:29;;;;;;;5.73;2.13;;;10.90;99.90;;;;;;5011339;28;20190;-75
2022/05/28 03:08:54;;;;;;;5.50;2.23;;;10.80;99.90;;;;;;5011701;28;20469;-75
2022/05/28 03:11:21;;;;;;;7.23;2.03;;;10.80;99.90;;;;;;5011188;28;20488;-74
2022/05/28 03:13:46;;;;;;;7.13;2.30;;;10.70;99.90;;;;;;5012380;28;20273;-73
2022/05/28 03:16:12;;;;;;;5.40;1.90;;;10.70;99.90;;;;;;5015362;28;20640;-76
2022/05/28 03:18:38;;;;;;;5.27;1.83;;;10.70;99.90;;;;;;5015497;28;20181;-75
2022/05/28 03:21:04;;;;;;;10.23;2.40;;;10.60;99.90;;;;;;5014748;28;20455;-75
2022/05/28 03:23:30;;;;;;;6.40;2.07;;;10.60;99.90;;;;;;5015937;28;20175;-75
2022/05/28 03:25:56;;;;;;;5.13;2.30;;;10.60;99.90;;;;;;5016241;28;20484;-75
2022/05/28 03:28:21;;;;;;;9.30;2.00;;;10.50;99.90;;;;;;5015313;28;20178;-74
2022/05/28 03:30:47;;;;;;;9.93;2.13;;;10.50;99.90;;;;;;5014034;28;20305;-75
2022/05/28 03:33:12;;;;;;;11.03;1.93;;;10.50;99.90;;;;;;5015168;28;20174;-75
2022/05/28 03:35:39;;;;;;;6.93;1.77;;;10.40;99.90;;;;;;5014269;28;20241;-73
2022/05/28 03:38:05;;;;;;;8.17;2.03;;;10.30;99.90;;;;;;5015048;28;20194;-75
2022/05/28 03:40:31;;;;;;;6.43;1.90;;;10.30;99.90;;;;;;5014443;28;20464;-74
2022/05/28 03:42:57;;;;;;;4.00;1.87;;;10.30;99.90;;;;;;5014335;28;20202;-75
2022/05/28 03:45:25;;;;;;;11.93;2.03;;;10.30;99.90;;;;;;5013092;28;20190;-75
2022/05/28 03:47:51;;;;;;;8.43;2.00;;;10.30;99.90;;;;;;5014747;28;20189;-75
2022/05/28 03:50:16;;;;;;;7.73;1.70;;;10.20;99.90;;;;;;5013198;28;20518;-75
2022/05/28 03:52:42;;;;;;;7.90;2.13;;;10.20;99.90;;;;;;5014055;28;20202;-74
2022/05/28 03:55:08;;;;;;;9.87;2.37;;;10.10;99.90;;;;;;5014423;28;20275;-74
2022/05/28 03:57:34;;;;;;;9.67;2.10;;;10.10;99.90;;;;;;5014069;28;20179;-74
2022/05/28 04:00:00;;;;;;;5.93;2.10;;;10.10;99.90;;;;;;5014672;28;20420;-75
2022/05/28 04:02:26;;;;;;;8.13;2.60;;;10.10;99.90;;;;;;5013760;28;20202;-75
2022/05/28 04:04:53;;;;;;;4.53;1.90;;;10.20;99.90;;;;;;5014491;28;20476;-75
2022/05/28 04:07:19;;;;;;;8.53;2.37;;;10.20;99.90;;;;;;5014081;28;20436;-75
2022/05/28 04:09:45;;;;;;;11.27;2.07;;;10.20;99.90;;;;;;5013813;28;20496;-72
2022/05/28 04:12:11;;;;;;;11.10;2.77;;;10.10;99.90;;;;;;5013582;28;20892;-75
2022/05/28 04:14:36;;;;;;;11.23;2.80;;;10.10;99.90;;;;;;5002150;28;20421;-75
2022/05/28 04:17:03;;;;;;;9.20;2.33;;;10.10;99.90;;;;;;5006372;28;21131;-75
2022/05/28 04:19:29;;;;;;;12.30;2.37;;;10.20;99.90;;;;;;5013998;28;20182;-75
2022/05/28 04:21:54;;;;;;;6.57;2.80;;;10.20;99.90;;;;;;5013481;28;20460;-75
2022/05/28 04:24:20;;;;;;;8.47;2.50;;;10.20;99.90;;;;;;5014177;28;20223;-75
2022/05/28 04:26:45;;;;;;;7.50;1.97;;;10.20;99.90;;;;;;5012820;28;20200;-75
2022/05/28 04:29:11;;;;;;;8.13;2.30;;;10.20;99.90;;;;;;5014360;28;20255;-75
2022/05/28 04:31:36;;;;;;;7.47;2.30;;;10.20;99.90;;;;;;5013147;28;20235;-75
2022/05/28 04:34:02;;;;;;;9.93;2.70;;;10.20;99.90;;;;;;5014062;28;20225;-75
2022/05/28 04:36:28;;;;;;;5.90;2.17;;;10.10;99.90;;;;;;5013406;28;20643;-75
2022/05/28 04:38:53;;;;;;;4.40;2.13;;;10.20;99.90;;;;;;5013903;28;20209;-75
2022/05/28 04:41:19;;;;;;;7.43;2.00;;;10.30;99.90;;;;;;5013131;28;20256;-75
2022/05/28 04:43:44;;;;;;;8.47;2.27;;;10.40;99.90;;;;;;5013517;28;20171;-75
2022/05/28 04:46:10;;;;;;;5.50;2.10;;;10.50;99.90;;;;;;5013252;28;20206;-75
2022/05/28 04:48:36;;;;;;;8.70;2.80;;;10.60;99.90;;;;;;5013385;28;20198;-75
2022/05/28 04:51:02;;;;;;;8.57;2.90;;;10.70;99.90;;;;;;5013210;28;20209;-75
2022/05/28 04:53:28;;;;;;;7.20;1.63;;;10.70;99.90;;;;;;5013389;28;20420;-74
2022/05/28 04:55:53;;;;;;;10.00;2.60;;;10.70;99.90;;;;;;5012036;28;20217;-75
2022/05/28 04:58:19;;;;;;;6.20;2.70;;;10.80;99.90;;;;;;5013442;28;20182;-73
2022/05/28 05:00:46;;;;;;;7.80;2.10;;;10.90;99.90;;;;;;5011966;28;20270;-75
2022/05/28 05:03:12;;;;;;;10.63;1.90;;;11.30;99.90;;;;;;5013345;28;20226;-75
2022/05/28 05:05:38;;;;;;;10.90;2.40;;;12.10;99.90;;;;;;5012555;28;21098;-75
2022/05/28 05:08:04;;;;;;;5.47;1.73;;;13.40;99.90;;;;;;5013301;28;20183;-75
2022/05/28 05:10:30;;;;;;;10.07;2.50;;;14.20;99.90;;;;;;5012862;28;20179;-75
2022/05/28 05:12:56;;;;;;;11.93;2.03;;;15.40;99.90;;;;;;5013180;28;20507;-75
2022/05/28 05:15:22;;;;;;;8.10;1.60;;;16.70;99.90;;;;;;5010521;28;20199;-76
2022/05/28 05:17:48;;;;;;;8.00;1.60;;;17.20;99.90;;;;;;5011692;28;20240;-75
2022/05/28 05:20:15;;;;;;;14.60;2.33;;;17.00;99.90;;;;;;5001933;28;20224;-74
2022/05/28 05:22:40;;;;;;;6.87;1.90;;;16.70;99.90;;;;;;5012746;28;20443;-76
2022/05/28 05:25:08;;;;;;;6.80;1.80;;;17.00;99.90;;;;;;5000288;28;20905;-75
2022/05/28 05:27:33;;;;;;;14.50;2.03;;;17.50;99.90;;;;;;4993178;28;20178;-75
2022/05/28 05:29:59;;;;;;;8.03;1.83;;;18.30;99.90;;;;;;5012467;28;20426;-75
2022/05/28 05:32:25;;;;;;;6.07;1.63;;;19.00;99.90;;;;;;5010805;28;20222;-76
2022/05/28 05:34:51;;;;;;;5.27;1.87;;;19.10;99.90;;;;;;5010014;28;20190;-76
2022/05/28 05:37:17;;;;;;;6.77;1.70;;;19.10;99.90;;;;;;4998013;28;20470;-75
2022/05/28 05:39:43;;;;;;;11.20;3.10;;;19.40;99.90;;;;;;5012337;28;20179;-76
2022/05/28 05:42:10;;;;;;;9.37;2.60;;;19.60;99.90;;;;;;5012056;28;20221;-76
2022/05/28 05:44:36;;;;;;;5.83;2.43;;;19.80;99.90;;;;;;5012790;28;20412;-75
2022/05/28 05:47:02;;;;;;;5.00;2.40;;;19.60;99.90;;;;;;5012623;28;20986;-74
2022/05/28 05:49:27;;;;;;;8.43;2.20;;;19.20;99.90;;;;;;5012307;28;20186;-76
2022/05/28 05:51:55;;;;;;;8.13;2.90;;;19.10;99.90;;;;;;5011845;28;20567;-72
2022/05/28 05:54:20;;;;;;;8.60;2.00;;;18.90;99.90;;;;;;5012180;28;20175;-72
2022/05/28 05:56:46;;;;;;;5.37;1.63;;;18.40;99.90;;;;;;5012472;28;20457;-73
2022/05/28 05:59:11;;;;;;;11.10;2.13;;;18.40;99.90;;;;;;5012284;28;20173;-72
2022/05/28 06:01:37;;;;;;;8.33;1.70;;;18.30;99.90;;;;;;5012266;28;20198;-72
2022/05/28 06:04:04;;;;;;;9.77;3.00;;;18.50;99.90;;;;;;5012131;28;20553;-72
2022/05/28 06:06:29;;;;;;;8.03;1.30;;;18.20;99.90;;;;;;5012087;28;20422;-71
2022/05/28 06:08:55;;;;;;;9.73;2.27;;;18.10;99.90;;;;;;5012163;28;20418;-72
2022/05/28 06:11:20;;;;;;;3.90;1.80;;;18.10;99.90;;;;;;5011786;28;20610;-73
2022/05/28 06:13:46;;;;;;;3.53;1.63;;;18.20;99.90;;;;;;5011909;28;20266;-72
2022/05/28 06:16:12;;;;;;;7.13;1.47;;;18.20;99.90;;;;;;5012057;28;20260;-72
2022/05/28 06:18:38;;;;;;;3.00;1.00;;;18.30;99.90;;;;;;5009136;28;20185;-72
2022/05/28 06:21:03;;;;;;;4.00;1.37;;;18.00;99.90;;;;;;5011162;28;20214;-73
2022/05/28 06:23:29;;;;;;;7.83;1.20;;;18.30;99.90;;;;;;5000815;28;20457;-73
2022/05/28 06:25:55;;;;;;;4.77;1.30;;;18.00;99.90;;;;;;5011616;28;20429;-73
2022/05/28 06:28:22;;;;;;;3.53;1.10;;;18.20;99.90;;;;;;5010990;28;20191;-72
2022/05/28 06:30:50;;;;;;;2.83;1.00;;;18.30;99.90;;;;;;5011025;28;20429;-72
2022/05/28 06:33:17;;;;;;;7.73;2.03;;;18.10;99.90;;;;;;5011255;28;20434;-73
2022/05/28 06:35:42;;;;;;;6.93;1.60;;;17.80;99.90;;;;;;5010708;28;20552;-73
2022/05/28 06:38:08;;;;;;;9.13;1.50;;;18.00;99.90;;;;;;5011451;28;20597;-73
2022/05/28 06:40:37;;;;;;;6.57;1.40;;;18.10;99.90;;;;;;5011034;28;20181;-74
2022/05/28 06:43:03;;;;;;;7.83;1.30;;;17.80;99.90;;;;;;5011312;28;20261;-76
2022/05/28 06:45:29;;;;;;;3.17;1.30;;;17.90;99.90;;;;;;5010443;28;20508;-76
2022/05/28 06:47:54;;;;;;;3.97;0.80;;;18.30;99.90;;;;;;5011196;28;20572;-75
2022/05/28 06:53:08;;;;;;;4.00;1.43;;;18.70;99.90;;;;;;5011147;28;20674;-75
2022/05/28 06:55:35;;;;;;;4.13;2.00;;;18.30;99.90;;;;;;5011202;28;20460;-77
2022/05/28 06:58:01;;;;;;;4.43;1.33;;;18.20;99.90;;;;;;5009460;28;20431;-75
2022/05/28 07:00:26;;;;;;;10.53;1.10;;;18.60;99.90;;;;;;5011232;28;20425;-74
2022/05/28 07:02:52;;;;;;;3.13;0.90;;;18.90;99.90;;;;;;5000549;28;20446;-77
2022/05/28 07:05:18;;;;;;;4.10;1.27;;;19.20;99.90;;;;;;5004841;28;20174;-75
2022/05/28 07:07:43;;;;;;;7.40;1.50;;;19.10;99.90;;;;;;5009762;28;20429;-76
2022/05/28 07:10:10;;;;;;;2.83;1.30;;;19.40;99.90;;;;;;5010602;28;20186;-75
2022/05/28 07:12:35;;;;;;;3.27;1.03;;;19.10;99.90;;;;;;5010924;28;20210;-75
2022/05/28 07:15:01;;;;;;;12.30;1.37;;;19.20;99.90;;;;;;5010266;28;20453;-76
2022/05/28 07:17:26;;;;;;;4.70;1.60;;;19.40;99.90;;;;;;4992751;28;20179;-76
2022/05/28 07:19:52;;;;;;;4.97;1.40;;;19.40;99.90;;;;;;4991734;28;20178;-75
2022/05/28 07:22:18;;;;;;;5.77;1.50;;;19.50;99.90;;;;;;5009231;28;20234;-76
2022/05/28 07:24:43;;;;;;;6.77;1.23;;;19.50;99.90;;;;;;5011132;28;20313;-77
2022/05/28 07:27:11;;;;;;;5.83;1.10;;;20.00;99.90;;;;;;4996065;28;20784;-76
2022/05/28 07:29:37;;;;;;;2.90;1.10;;;20.40;99.90;;;;;;4991526;28;20250;-75
2022/05/28 07:32:03;;;;;;;2.13;0.80;;;20.40;99.90;;;;;;4995588;28;20843;-76
2022/05/28 07:34:28;;;;;;;2.40;0.80;;;20.50;99.90;;;;;;4999344;28;20526;-77
2022/05/28 07:36:54;;;;;;;3.83;1.10;;;20.60;99.90;;;;;;4998311;28;20207;-76
2022/05/28 07:39:19;;;;;;;4.60;1.40;;;20.60;99.90;;;;;;4998984;28;20176;-75
2022/05/28 07:41:45;;;;;;;4.67;0.90;;;20.70;99.90;;;;;;4998681;28;20191;-76
2022/05/28 07:44:11;;;;;;;1.67;0.90;;;20.50;99.90;;;;;;4998821;28;20228;-77
2022/05/28 07:46:37;;;;;;;5.23;1.10;;;20.30;99.90;;;;;;4999007;28;20237;-76
2022/05/28 07:49:04;;;;;;;2.40;0.70;;;20.20;99.90;;;;;;4998908;28;20263;-77
2022/05/28 07:51:29;;;;;;;1.40;0.70;;;19.60;99.90;;;;;;4998360;28;20566;-75
2022/05/28 07:53:56;;;;;;;3.73;0.83;;;19.60;99.90;;;;;;4998605;28;20425;-75
2022/05/28 07:56:21;;;;;;;1.23;0.90;;;19.40;99.90;;;;;;4998914;28;20210;-75
2022/05/28 07:58:47;;;;;;;2.80;0.70;;;19.70;99.90;;;;;;4998488;28;20421;-75
2022/05/28 08:01:20;;;;;;;2.87;1.03;;;19.40;99.90;;;;;;5000432;28;20265;-73
2022/05/28 08:03:47;;;;;;;2.60;0.90;;;19.80;99.90;;;;;;5002466;28;20609;-75
2022/05/28 08:06:12;;;;;;;3.87;1.03;;;19.80;99.90;;;;;;5002339;28;20413;-75
2022/05/28 08:08:38;;;;;;;4.60;1.07;;;20.20;99.90;;;;;;5001758;28;20453;-75
2022/05/28 08:11:03;;;;;;;3.00;1.03;;;20.50;99.90;;;;;;5002138;28;20246;-77
2022/05/28 08:13:29;;;;;;;8.73;1.30;;;20.30;99.90;;;;;;5002234;28;20195;-76
2022/05/28 08:15:55;;;;;;;4.43;1.40;;;20.20;99.90;;;;;;5002212;28;20303;-76
2022/05/28 08:18:24;;;;;;;4.93;1.07;;;19.90;99.90;;;;;;5005773;28;20182;-73
2022/05/28 08:23:38;;;;;;;8.70;1.13;;;19.20;99.90;;;;;;5011625;28;20526;-74
2022/05/28 08:26:04;;;;;;;5.30;1.13;;;18.70;99.90;;;;;;5011981;28;20785;-73
2022/05/28 08:28:29;;;;;;;5.17;1.10;;;18.40;99.90;;;;;;5011619;28;20417;-74
2022/05/28 08:30:55;;;;;;;9.33;1.57;;;18.40;99.90;;;;;;5011832;28;20205;-74
2022/05/28 08:33:21;;;;;;;7.50;0.80;;;18.80;99.90;;;;;;5012609;28;20189;-73
2022/05/28 08:35:50;;;;;;;2.50;1.10;;;19.20;99.90;;;;;;5013161;28;20325;-73
2022/05/28 08:38:17;;;;;;;2.90;1.13;;;20.00;99.90;;;;;;5013804;28;20781;-74
2022/05/28 08:40:58;;;;;;;4.97;1.00;;;20.80;99.90;;;;;;5014303;28;20747;-73
2022/05/28 08:43:27;;;;;;;2.30;0.90;;;21.00;99.90;;;;;;5013966;28;20847;-74
2022/05/28 08:45:52;;;;;;;2.20;1.00;;;20.80;99.90;;;;;;5013674;28;20416;-74
2022/05/28 08:48:26;;;;;;;2.80;1.00;;;20.20;99.90;;;;;;5013677;28;20500;-74
2022/05/28 08:51:01;;;;;;;4.23;1.00;;;19.70;99.90;;;;;;5013487;28;20437;-74
2022/05/28 08:53:31;;;;;;;2.80;0.70;;;18.70;99.90;;;;;;5012123;28;20978;-74
2022/05/28 08:55:59;;;;;;;3.70;1.30;;;18.20;99.90;;;;;;5013995;28;20471;-72
2022/05/28 08:58:28;;;;;;;6.97;1.67;;;18.00;99.90;;;;;;5013325;28;20410;-73
2022/05/28 09:01:09;;;;;;;11.50;1.70;;;17.90;99.90;;;;;;5013333;28;20464;-74
2022/05/28 09:03:59;;;;;;;2.40;0.90;;;18.20;99.90;;;;;;5013268;28;20485;-74
2022/05/28 09:06:31;;;;;;;3.40;0.80;;;18.90;99.90;;;;;;5011714;28;20517;-74
2022/05/28 09:08:56;;;;;;;1.63;1.00;;;20.20;99.90;;;;;;5011961;28;20436;-75
2022/05/28 09:11:31;;;;;;;1.73;1.03;;;21.00;99.90;;;;;;4993270;28;20434;-74
2022/05/28 09:13:58;;;;;;;2.80;1.60;;;20.60;99.90;;;;;;4993712;28;20186;-75
2022/05/28 09:16:31;;;;;;;8.87;2.03;;;20.10;99.90;;;;;;4993947;28;20466;-74
2022/05/28 09:19:01;;;;;;;4.53;0.70;;;19.80;99.90;;;;;;4993545;28;20414;-74
2022/05/28 09:21:27;;;;;;;6.87;1.40;;;20.30;99.90;;;;;;4993053;28;20454;-75
2022/05/28 09:23:58;;;;;;;2.27;0.70;;;20.50;99.90;;;;;;4993473;28;20403;-73
2022/05/28 09:26:46;;;;;;;1.73;0.70;;;20.30;99.90;;;;;;4993240;28;20187;-74
2022/05/28 09:29:46;;;;;;;3.33;1.00;;;20.00;99.90;;;;;;4993510;28;20502;-74
2022/05/28 09:32:25;;;;;;;6.83;1.60;;;19.90;99.90;;;;;;4992848;28;20458;-74
2022/05/28 09:35:13;;;;;;;5.50;0.80;;;20.90;99.90;;;;;;4993323;28;20406;-73
2022/05/28 09:37:56;;;;;;;2.40;0.80;;;21.20;99.90;;;;;;4993009;28;20418;-74
2022/05/28 09:40:30;;;;;;;4.03;1.10;;;21.40;99.90;;;;;;4993113;28;20406;-73
2022/05/28 09:43:24;;;;;;;3.93;0.83;;;21.00;99.90;;;;;;4991654;28;20857;-74
2022/05/28 09:46:12;;;;;;;2.70;0.80;;;20.60;99.90;;;;;;4993144;28;20911;-73
2022/05/28 09:48:37;;;;;;;3.57;1.10;;;20.80;99.90;;;;;;4992782;28;20418;-73
2022/05/28 09:51:03;;;;;;;9.37;1.50;;;21.40;99.90;;;;;;4992742;28;20434;-74
2022/05/28 09:56:36;;;;;;;2.97;1.10;;;21.50;99.90;;;;;;4992857;28;20738;-75
2022/05/28 09:59:23;;;;;;;3.40;0.90;;;21.60;99.90;;;;;;5009988;28;20426;-75
2022/05/28 10:02:08;;;;;;;2.27;1.20;;;22.10;99.90;;;;;;4995485;28;20970;-74
2022/05/28 10:04:45;;;;;;;6.50;1.40;;;22.60;99.90;;;;;;4991267;28;20457;-74
2022/05/28 10:07:11;;;;;;;3.63;1.10;;;22.60;99.90;;;;;;5010980;28;20440;-74
2022/05/28 10:09:49;;;;;;;3.67;0.90;;;22.70;99.90;;;;;;5010862;28;20422;-74
2022/05/28 10:12:23;;;;;;;5.67;0.70;;;22.00;99.90;;;;;;5010668;28;20285;-74
2022/05/28 10:15:16;;;;;;;4.40;0.80;;;21.70;99.90;;;;;;5012123;28;20417;-74
2022/05/28 10:17:52;;;;;;;3.43;0.80;;;22.10;99.90;;;;;;5012101;28;20416;-74
2022/05/28 10:20:19;;;;;;;6.17;1.73;;;21.90;99.90;;;;;;5011985;28;20445;-73
2022/05/28 10:22:47;;;;;;;7.37;0.80;;;21.60;99.90;;;;;;5011642;28;21326;-73
2022/05/28 10:25:38;;;;;;;2.27;0.87;;;21.40;99.80;;;;;;5011430;28;20417;-74
2022/05/28 10:28:07;;;;;;;1.40;0.90;;;20.80;99.90;;;;;;5012073;28;20420;-74
2022/05/28 10:30:41;;;;;;;2.23;0.80;;;20.20;99.90;;;;;;5011542;28;20835;-71
2022/05/28 10:33:14;;;;;;;5.63;1.40;;;19.70;99.90;;;;;;5011942;28;20961;-73
2022/05/28 10:35:40;;;;;;;9.57;1.20;;;19.70;99.90;;;;;;5010409;28;21112;-74
2022/05/28 10:38:24;;;;;;;4.00;1.07;;;19.50;99.90;;;;;;5011870;28;20409;-75
2022/05/28 10:40:55;;;;;;;5.40;1.20;;;19.50;99.90;;;;;;5010215;28;20922;-73
2022/05/28 10:43:38;;;;;;;2.97;1.20;;;19.40;99.90;;;;;;5011721;28;20402;-74
2022/05/28 10:46:49;;;;;;;3.93;0.90;;;19.40;99.90;;;;;;5011866;28;20413;-74
2022/05/28 10:49:40;;;;;;;1.77;0.73;;;19.20;99.90;;;;;;5011817;28;20405;-74
2022/05/28 10:52:40;;;;;;;5.23;1.10;;;19.70;99.90;;;;;;5011532;28;20524;-73
2022/05/28 10:55:09;;;;;;;4.53;1.03;;;19.60;99.90;;;;;;5011608;28;20961;-73
2022/05/28 10:58:04;;;;;;;4.97;1.17;;;19.90;99.90;;;;;;5011479;28;20425;-73
2022/05/28 11:00:47;;;;;;;3.63;1.27;;;19.90;99.90;;;;;;4995109;28;20425;-73
2022/05/28 11:03:24;;;;;;;3.60;0.90;;;20.00;99.90;;;;;;4991927;28;20433;-74
2022/05/28 11:06:08;;;;;;;4.53;1.73;;;20.40;99.90;;;;;;4992155;28;20815;-74
2022/05/28 11:08:55;;;;;;;5.03;1.50;;;20.80;99.90;;;;;;4991728;28;20407;-74
2022/05/28 11:11:33;;;;;;;2.37;0.97;;;20.80;99.90;;;;;;4991479;28;20453;-74
2022/05/28 11:14:26;;;;;;;5.50;0.90;;;21.00;99.90;;;;;;4990496;28;20450;-74
2022/05/28 11:17:18;;;;;;;2.40;0.80;;;20.80;98.50;;;;;;4991846;28;20512;-74
2022/05/28 11:20:07;;;;;;;1.00;0.80;;;20.50;98.40;;;;;;4990291;28;20995;-74
2022/05/28 11:23:06;;;;;;;3.20;0.73;;;20.40;99.90;;;;;;4991347;28;20438;-75
2022/05/28 11:25:58;;;;;;;1.83;0.70;;;20.90;99.90;;;;;;4991733;28;20411;-74
2022/05/28 11:28:52;;;;;;;5.80;1.00;;;21.10;99.90;;;;;;4988371;28;20518;-73
2022/05/28 11:31:43;;;;;;;7.00;0.80;;;21.20;99.90;;;;;;4991282;28;20450;-73
2022/05/28 11:34:40;;;;;;;1.97;0.90;;;21.30;98.90;;;;;;4991591;28;20417;-74
2022/05/28 11:37:18;;;;;;;2.30;0.93;;;20.80;98.00;;;;;;4985608;28;20488;-75
2022/05/28 11:40:11;;;;;;;5.20;1.10;;;20.80;99.70;;;;;;4995195;28;20854;-75
2022/05/28 11:43:07;;;;;;;2.93;1.00;;;20.90;97.70;;;;;;4994989;28;20449;-73
2022/05/28 11:45:41;;;;;;;2.23;0.90;;;20.80;97.90;;;;;;4995060;28;20489;-74
2022/05/28 11:48:09;;;;;;;2.40;0.90;;;20.50;99.10;;;;;;5002912;28;20925;-74
2022/05/28 11:53:33;;;;;;;1.67;0.73;;;21.00;99.20;;;;;;5014739;28;20490;-75
2022/05/28 11:56:06;;;;;;;2.43;0.70;;;21.50;99.20;;;;;;5014629;28;20972;-74
2022/05/28 11:58:37;;;;;;;2.43;0.90;;;21.60;97.30;;;;;;5014583;28;20492;-73
2022/05/28 12:01:13;;;;;;;4.73;0.80;;;21.50;97.90;;;;;;5014153;28;20437;-74
2022/05/28 12:03:42;;;;;;;2.20;0.83;;;21.40;98.50;;;;;;5014789;28;21224;-74
2022/05/28 12:06:32;;;;;;;6.53;1.73;;;21.30;97.90;;;;;;5014594;28;20417;-71
2022/05/28 12:09:07;;;;;;;1.70;0.70;;;21.20;97.60;;;;;;5015090;28;20410;-73
2022/05/28 12:11:46;;;;;;;3.77;1.50;;;20.90;96.90;;;;;;5013952;28;20464;-74
2022/05/28 12:14:31;;;;;;;3.93;1.20;;;20.80;99.10;;;;;;5013247;28;20487;-74
2022/05/28 12:17:21;;;;;;;4.00;0.97;;;20.80;97.70;;;;;;4998662;28;20977;-73
2022/05/28 12:19:59;;;;;;;3.43;1.30;;;20.60;98.30;;;;;;4994927;28;20442;-73
2022/05/28 12:22:35;;;;;;;3.83;0.87;;;20.80;98.50;;;;;;4994283;28;20430;-74
2022/05/28 12:25:14;;;;;;;4.80;0.80;;;20.40;97.90;;;;;;4994934;28;20422;-74
2022/05/28 12:27:42;;;;;;;2.80;0.90;;;20.10;99.90;;;;;;4994321;28;20418;-74
2022/05/28 12:30:23;;;;;;;3.40;0.93;;;20.10;97.60;;;;;;4994546;28;20897;-74
2022/05/28 12:32:50;;;;;;;4.00;1.60;;;20.00;99.90;;;;;;4994028;28;20608;-73
2022/05/28 12:35:15;;;;;;;1.73;0.90;;;20.10;99.90;;;;;;4994368;28;20513;-74
2022/05/28 12:37:52;;;;;;;2.40;1.20;;;20.20;99.90;;;;;;4994250;28;20430;-73
2022/05/28 12:40:35;;;;;;;4.33;1.00;;;20.00;99.90;;;;;;4994276;28;20179;-73
2022/05/28 12:43:18;;;;;;;4.67;1.30;;;19.90;99.90;;;;;;5011652;28;20576;-74
2022/05/28 12:45:49;;;;;;;2.60;1.00;;;19.90;99.90;;;;;;5013917;28;21016;-76
2022/05/28 12:48:28;;;;;;;6.67;1.60;;;19.80;99.90;;;;;;4993227;28;20472;-78
2022/05/28 12:51:34;;;;;;;6.70;1.20;;;19.60;99.90;;;;;;4994998;28;20414;-78
2022/05/28 12:54:01;;;;;;;2.97;1.43;;;19.30;99.90;;;;;;4997006;28;20415;-78
2022/05/28 12:56:35;;;;;;;2.40;0.90;;;19.70;99.90;;;;;;4999139;28;20464;-76
2022/05/28 12:59:22;;;;;;;4.70;1.30;;;20.00;99.90;;;;;;5013619;28;20492;-77
2022/05/28 13:02:22;;;;;;;3.57;1.00;;;20.10;99.90;;;;;;5012352;28;20445;-78
2022/05/28 13:05:09;;;;;;;3.30;0.90;;;20.20;99.90;;;;;;5003087;28;20426;-78
2022/05/28 13:07:41;;;;;;;8.10;0.90;;;20.00;99.90;;;;;;4999382;28;20431;-78
2022/05/28 13:10:13;;;;;;;2.63;0.90;;;20.10;99.90;;;;;;4995296;28;20521;-78
2022/05/28 13:12:53;;;;;;;2.83;0.80;;;20.40;99.90;;;;;;4994831;28;20450;-79
2022/05/28 13:15:41;;;;;;;5.03;1.10;;;20.50;99.90;;;;;;4992951;28;20466;-79
2022/05/28 13:18:16;;;;;;;2.50;1.03;;;20.50;99.90;;;;;;4995592;28;20422;-79
2022/05/28 13:21:20;;;;;;;2.83;0.90;;;20.10;99.50;;;;;;4994044;28;20426;-75
2022/05/28 13:24:21;;;;;;;3.00;1.00;;;20.00;99.90;;;;;;4971810;28;20783;-78
2022/05/28 13:27:21;;;;;;;3.13;1.00;;;20.00;99.90;;;;;;4989165;28;20441;-76
2022/05/28 13:29:55;;;;;;;3.43;0.90;;;20.10;99.50;;;;;;5008478;28;20421;-73
2022/05/28 13:32:41;;;;;;;3.07;0.70;;;20.10;99.40;;;;;;5012375;28;20453;-73
2022/05/28 13:35:14;;;;;;;4.20;0.90;;;20.40;99.40;;;;;;5012884;28;20425;-75
2022/05/28 13:37:43;;;;;;;3.17;1.10;;;20.40;97.90;;;;;;5012130;28;20438;-74
2022/05/28 13:40:18;;;;;;;2.37;0.87;;;20.30;97.40;;;;;;5012655;28;20499;-74
2022/05/28 13:42:45;;;;;;;2.87;0.93;;;20.50;96.70;;;;;;4999586;28;20977;-74
2022/05/28 13:45:11;;;;;;;4.43;0.90;;;20.50;98.40;;;;;;4993940;28;20918;-74
2022/05/28 13:47:40;;;;;;;4.93;0.80;;;20.70;98.00;;;;;;4994135;28;20434;-75
2022/05/28 13:50:08;;;;;;;5.70;0.77;;;20.80;97.00;;;;;;4998266;28;20433;-73
2022/05/28 13:52:41;;;;;;;4.33;1.00;;;20.60;96.90;;;;;;5010476;28;20457;-74
2022/05/28 13:55:09;;;;;;;2.93;1.07;;;20.60;95.60;;;;;;5010933;28;20429;-75
2022/05/28 13:57:39;;;;;;;1.53;0.93;;;20.60;98.10;;;;;;5011934;28;20563;-76
2022/05/28 14:00:18;;;;;;;2.40;1.10;;;20.60;96.50;;;;;;5010175;28;20771;-75
2022/05/28 14:02:54;;;;;;;3.40;0.87;;;20.40;95.60;;;;;;5000224;28;20608;-73
2022/05/28 14:05:35;;;;;;;1.60;0.60;;;20.10;97.20;;;;;;4993918;28;20795;-73
2022/05/28 14:08:22;;;;;;;4.27;0.70;;;20.00;97.50;;;;;;5000841;28;20484;-73
2022/05/28 14:10:51;;;;;;;1.47;1.00;;;20.00;96.60;;;;;;5008924;28;20523;-73
2022/05/28 14:13:26;;;;;;;1.87;0.60;;;20.00;97.10;;;;;;5010409;28;20841;-73
2022/05/28 14:15:53;;;;;;;2.30;0.77;;;20.00;96.30;;;;;;5010987;28;20511;-74
2022/05/28 14:18:35;;;;;;;1.63;1.00;;;19.80;97.00;;;;;;5010594;28;20573;-73
2022/05/28 14:21:09;;;;;;;2.00;0.90;;;19.80;97.90;;;;;;5010568;28;20465;-72
2022/05/28 14:23:42;;;;;;;3.90;0.93;;;19.80;98.00;;;;;;5010393;28;20465;-74
2022/05/28 14:26:11;;;;;;;4.33;0.90;;;19.60;97.00;;;;;;5010742;28;20472;-74
2022/05/28 14:28:37;;;;;;;8.50;0.80;;;19.40;98.50;;;;;;5008730;28;20597;-74
2022/05/28 14:31:02;;;;;;;3.03;0.60;;;19.30;97.30;;;;;;4999623;28;20579;-74
2022/05/28 14:33:32;;;;;;;3.00;0.80;;;19.30;97.70;;;;;;5010240;28;20582;-73
2022/05/28 14:36:10;;;;;;;2.67;0.90;;;19.30;98.60;;;;;;4996568;28;20633;-74
2022/05/28 14:38:36;;;;;;;3.97;0.97;;;19.20;97.10;;;;;;5000335;28;20479;-76
2022/05/28 14:41:09;;;;;;;1.93;0.80;;;19.10;97.50;;;;;;5010733;28;20819;-77
2022/05/28 14:43:35;;;;;;;3.10;1.23;;;18.90;97.60;;;;;;5003062;28;20421;-76
2022/05/28 14:46:18;;;;;;;1.20;0.60;;;18.80;99.00;;;;;;5011440;28;20524;-75
2022/05/28 14:48:44;;;;;;;2.30;0.60;;;18.50;95.90;;;;;;5011731;28;20183;-76